createdAt,value
2023-05-09T00:00:09.913Z,17.75
2023-05-09T00:01:09.944Z,17.76
2023-05-09T00:02:10.027Z,17.75
2023-05-09T00:03:09.979Z,17.75
2023-05-09T00:04:10.005Z,17.76
2023-05-09T00:05:09.987Z,17.74
2023-05-09T00:06:09.970Z,17.72
2023-05-09T00:07:10.067Z,17.68
2023-05-09T00:08:10.000Z,17.64
2023-05-09T00:09:09.973Z,17.67
2023-05-09T00:10:09.979Z,17.65
2023-05-09T00:11:09.980Z,17.66
2023-05-09T00:12:09.995Z,17.68
2023-05-09T00:13:10.006Z,17.69
2023-05-09T00:14:10.029Z,17.70
2023-05-09T00:15:10.076Z,17.71
2023-05-09T00:16:10.023Z,17.71
2023-05-09T00:17:09.996Z,17.68
2023-05-09T00:18:09.988Z,17.65
2023-05-09T00:19:10.007Z,17.63
2023-05-09T00:20:10.025Z,17.63
2023-05-09T00:21:10.015Z,17.62
2023-05-09T00:22:09.993Z,17.60
2023-05-09T00:23:10.063Z,17.61
2023-05-09T00:24:09.999Z,17.59
2023-05-09T00:25:10.057Z,17.61
2023-05-09T00:26:10.010Z,17.62
2023-05-09T00:27:09.997Z,17.62
2023-05-09T00:28:09.992Z,17.60
2023-05-09T00:29:09.974Z,17.62
2023-05-09T00:30:10.012Z,17.61
2023-05-09T00:31:10.003Z,17.62
2023-05-09T00:32:10.052Z,17.59
2023-05-09T00:33:10.027Z,17.60
2023-05-09T00:34:09.990Z,17.59
2023-05-09T00:35:10.175Z,17.58
2023-05-09T00:36:10.008Z,17.58
2023-05-09T00:37:10.012Z,17.57
2023-05-09T00:38:10.029Z,17.55
2023-05-09T00:39:10.107Z,17.55
2023-05-09T00:40:10.043Z,17.57
2023-05-09T00:41:10.058Z,17.61
2023-05-09T00:42:10.088Z,17.63
2023-05-09T00:43:10.087Z,17.62
2023-05-09T00:44:10.095Z,17.60
2023-05-09T00:45:10.121Z,17.60
2023-05-09T00:46:10.168Z,17.58
2023-05-09T00:47:10.134Z,17.57
2023-05-09T00:48:10.174Z,17.54
2023-05-09T00:49:10.170Z,17.58
2023-05-09T00:50:10.179Z,17.59
2023-05-09T00:51:10.183Z,17.60
2023-05-09T00:52:10.204Z,17.61
2023-05-09T00:53:10.223Z,17.61
2023-05-09T00:54:10.254Z,17.60
2023-05-09T00:55:10.330Z,17.60
2023-05-09T00:56:10.261Z,17.58
2023-05-09T00:57:10.283Z,17.56
2023-05-09T00:58:10.275Z,17.56
2023-05-09T00:59:10.305Z,17.54
2023-05-09T01:00:10.325Z,17.57
2023-05-09T01:01:10.404Z,17.55
2023-05-09T01:02:10.322Z,17.57
2023-05-09T01:03:10.429Z,17.55
2023-05-09T01:04:10.349Z,17.53
2023-05-09T01:05:10.371Z,17.52
2023-05-09T01:06:10.480Z,17.51
2023-05-09T01:07:10.391Z,17.47
2023-05-09T01:08:10.416Z,17.48
2023-05-09T01:09:10.431Z,17.48
2023-05-09T01:10:10.443Z,17.47
2023-05-09T01:11:10.551Z,17.46
2023-05-09T01:12:10.478Z,17.49
2023-05-09T01:13:10.607Z,17.54
2023-05-09T01:14:10.534Z,17.55
2023-05-09T01:15:10.550Z,17.52
2023-05-09T01:16:10.592Z,17.49
2023-05-09T01:17:10.592Z,17.48
2023-05-09T01:18:10.614Z,17.48
2023-05-09T01:19:10.635Z,17.48
2023-05-09T01:20:10.628Z,17.51
2023-05-09T01:21:10.652Z,17.50
2023-05-09T01:22:10.654Z,17.52
2023-05-09T01:23:10.668Z,17.53
2023-05-09T01:24:10.707Z,17.53
2023-05-09T01:25:10.693Z,17.53
2023-05-09T01:26:10.718Z,17.53
2023-05-09T01:27:10.802Z,17.53
2023-05-09T01:28:10.737Z,17.53
2023-05-09T01:29:10.764Z,17.51
2023-05-09T01:30:10.756Z,17.50
2023-05-09T01:31:10.801Z,17.48
2023-05-09T01:32:10.793Z,17.46
2023-05-09T01:33:10.843Z,17.45
2023-05-09T01:34:10.849Z,17.42
2023-05-09T01:35:10.866Z,17.44
2023-05-09T01:36:10.886Z,17.46
2023-05-09T01:37:10.920Z,17.46
2023-05-09T01:38:10.928Z,17.46
2023-05-09T01:39:10.940Z,17.44
2023-05-09T01:40:10.978Z,17.44
2023-05-09T01:41:11.006Z,17.43
2023-05-09T01:42:11.005Z,17.42
2023-05-09T01:43:11.110Z,17.40
2023-05-09T01:44:11.118Z,17.37
2023-05-09T01:45:11.089Z,17.37
2023-05-09T01:46:11.121Z,17.33
2023-05-09T01:47:11.147Z,17.34
2023-05-09T01:48:11.169Z,17.33
2023-05-09T01:49:11.181Z,17.35
2023-05-09T01:50:11.222Z,17.40
2023-05-09T01:51:11.232Z,17.42
2023-05-09T01:52:11.279Z,17.39
2023-05-09T01:53:11.272Z,17.40
2023-05-09T01:54:11.271Z,17.41
2023-05-09T01:55:11.308Z,17.42
2023-05-09T01:56:11.322Z,17.41
2023-05-09T01:57:11.366Z,17.41
2023-05-09T01:58:11.373Z,17.40
2023-05-09T01:59:11.472Z,17.35
2023-05-09T02:00:11.423Z,17.37
2023-05-09T02:01:11.496Z,17.34
2023-05-09T02:02:11.499Z,17.35
2023-05-09T02:03:11.505Z,17.34
2023-05-09T02:04:11.498Z,17.35
2023-05-09T02:05:11.683Z,17.35
2023-05-09T02:06:11.524Z,17.36
2023-05-09T02:07:11.580Z,17.40
2023-05-09T02:08:11.584Z,17.42
2023-05-09T02:09:11.586Z,17.46
2023-05-09T02:10:11.627Z,17.50
2023-05-09T02:11:11.636Z,17.53
2023-05-09T02:12:11.635Z,17.53
2023-05-09T02:13:11.690Z,17.50
2023-05-09T02:14:11.690Z,17.48
2023-05-09T02:15:11.973Z,17.50
2023-05-09T02:16:11.728Z,17.52
2023-05-09T02:17:11.698Z,17.52
2023-05-09T02:18:11.711Z,17.49
2023-05-09T02:19:11.730Z,17.48
2023-05-09T02:20:11.739Z,17.49
2023-05-09T02:21:11.909Z,17.48
2023-05-09T02:22:11.762Z,17.47
2023-05-09T02:23:11.781Z,17.51
2023-05-09T02:24:11.790Z,17.51
2023-05-09T02:25:12.010Z,17.53
2023-05-09T02:26:11.821Z,17.50
2023-05-09T02:27:11.841Z,17.45
2023-05-09T02:28:11.887Z,17.44
2023-05-09T02:29:11.883Z,17.42
2023-05-09T02:30:11.933Z,17.44
2023-05-09T02:31:11.976Z,17.47
2023-05-09T02:32:11.948Z,17.50
2023-05-09T02:33:11.978Z,17.51
2023-05-09T02:34:11.941Z,17.53
2023-05-09T02:35:12.020Z,17.53
2023-05-09T02:36:11.974Z,17.56
2023-05-09T02:37:11.997Z,17.56
2023-05-09T02:38:12.010Z,17.54
2023-05-09T02:39:12.010Z,17.53
2023-05-09T02:40:12.032Z,17.52
2023-05-09T02:41:12.040Z,17.50
2023-05-09T02:42:12.105Z,17.48
2023-05-09T02:43:12.093Z,17.47
2023-05-09T02:44:12.114Z,17.47
2023-05-09T02:45:12.230Z,17.48
2023-05-09T02:46:12.166Z,17.48
2023-05-09T02:47:12.219Z,17.48
2023-05-09T02:48:12.180Z,17.49
2023-05-09T02:49:22.807Z,17.51
2023-05-09T02:50:13.184Z,17.50
2023-05-09T02:51:12.156Z,17.53
2023-05-09T02:52:12.150Z,17.54
2023-05-09T02:53:12.167Z,17.55
2023-05-09T02:54:12.134Z,17.55
2023-05-09T02:55:12.320Z,17.51
2023-05-09T02:56:12.115Z,17.49
2023-05-09T02:57:12.112Z,17.50
2023-05-09T02:58:14.842Z,17.52
2023-05-09T02:59:12.091Z,17.53
2023-05-09T03:00:12.092Z,17.51
2023-05-09T03:01:12.083Z,17.53
2023-05-09T03:02:12.085Z,17.54
2023-05-09T03:03:12.266Z,17.53
2023-05-09T03:04:12.080Z,17.52
2023-05-09T03:05:12.094Z,17.55
2023-05-09T03:06:12.067Z,17.55
2023-05-09T03:07:12.050Z,17.56
2023-05-09T03:08:12.048Z,17.53
2023-05-09T03:09:12.032Z,17.50
2023-05-09T03:10:12.019Z,17.53
2023-05-09T03:11:12.006Z,17.54
2023-05-09T03:12:12.021Z,17.53
2023-05-09T03:13:12.042Z,17.52
2023-05-09T03:14:12.003Z,17.50
2023-05-09T03:15:12.156Z,17.49
2023-05-09T03:16:12.026Z,17.49
2023-05-09T03:17:11.968Z,17.45
2023-05-09T03:18:12.020Z,17.49
2023-05-09T03:19:12.035Z,17.51
2023-05-09T03:20:11.937Z,17.52
2023-05-09T03:21:11.944Z,17.50
2023-05-09T03:22:11.947Z,17.49
2023-05-09T03:23:11.938Z,17.47
2023-05-09T03:24:11.926Z,17.46
2023-05-09T03:25:11.984Z,17.47
2023-05-09T03:26:11.908Z,17.48
2023-05-09T03:27:11.894Z,17.49
2023-05-09T03:28:11.887Z,17.50
2023-05-09T03:29:11.877Z,17.50
2023-05-09T03:30:11.878Z,17.49
2023-05-09T03:31:11.968Z,17.48
2023-05-09T03:32:13.392Z,17.50
2023-05-09T03:33:11.859Z,17.50
2023-05-09T03:34:11.856Z,17.51
2023-05-09T03:35:11.966Z,17.50
2023-05-09T03:36:11.840Z,17.50
2023-05-09T03:37:11.815Z,17.47
2023-05-09T03:38:11.815Z,17.45
2023-05-09T03:39:11.812Z,17.42
2023-05-09T03:40:11.796Z,17.41
2023-05-09T03:41:11.788Z,17.44
2023-05-09T03:42:11.769Z,17.47
2023-05-09T03:43:11.778Z,17.47
2023-05-09T03:44:11.780Z,17.48
2023-05-09T03:45:11.823Z,17.47
2023-05-09T03:46:11.777Z,17.44
2023-05-09T03:47:11.769Z,17.45
2023-05-09T03:48:11.791Z,17.43
2023-05-09T03:49:11.737Z,17.44
2023-05-09T03:50:11.738Z,17.46
2023-05-09T03:51:11.809Z,17.46
2023-05-09T03:52:11.713Z,17.43
2023-05-09T03:53:11.718Z,17.46
2023-05-09T03:54:11.696Z,17.49
2023-05-09T03:55:11.721Z,17.48
2023-05-09T03:56:11.698Z,17.49
2023-05-09T03:57:11.699Z,17.51
2023-05-09T03:58:11.690Z,17.52
2023-05-09T03:59:11.669Z,17.53
2023-05-09T04:00:11.655Z,17.54
2023-05-09T04:01:11.644Z,17.55
2023-05-09T04:02:11.677Z,17.54
2023-05-09T04:03:11.702Z,17.54
2023-05-09T04:04:11.710Z,17.54
2023-05-09T04:05:11.683Z,17.53
2023-05-09T04:06:11.612Z,17.52
2023-05-09T04:07:11.693Z,17.48
2023-05-09T04:08:11.602Z,17.46
2023-05-09T04:09:11.603Z,17.50
2023-05-09T04:10:11.615Z,17.49
2023-05-09T04:11:11.594Z,17.48
2023-05-09T04:12:11.600Z,17.48
2023-05-09T04:13:11.639Z,17.48
2023-05-09T04:14:11.552Z,17.47
2023-05-09T04:15:11.688Z,17.46
2023-05-09T04:16:11.562Z,17.45
2023-05-09T04:17:11.543Z,17.46
2023-05-09T04:18:11.545Z,17.44
2023-05-09T04:19:11.514Z,17.45
2023-05-09T04:20:11.526Z,17.46
2023-05-09T04:21:11.505Z,17.44
2023-05-09T04:22:11.559Z,17.45
2023-05-09T04:23:11.576Z,17.42
2023-05-09T04:24:11.487Z,17.44
2023-05-09T04:25:11.476Z,17.43
2023-05-09T04:26:11.467Z,17.43
2023-05-09T04:27:11.456Z,17.48
2023-05-09T04:28:11.472Z,17.50
2023-05-09T04:29:11.458Z,17.52
2023-05-09T04:30:11.475Z,17.52
2023-05-09T04:31:11.492Z,17.51
2023-05-09T04:32:11.462Z,17.51
2023-05-09T04:33:11.424Z,17.51
2023-05-09T04:34:11.418Z,17.52
2023-05-09T04:35:11.429Z,17.52
2023-05-09T04:36:11.415Z,17.49
2023-05-09T04:37:11.394Z,17.49
2023-05-09T04:38:11.399Z,17.46
2023-05-09T04:39:11.481Z,17.47
2023-05-09T04:40:11.377Z,17.48
2023-05-09T04:41:11.397Z,17.50
2023-05-09T04:42:11.378Z,17.52
2023-05-09T04:43:11.380Z,17.52
2023-05-09T04:44:11.338Z,17.54
2023-05-09T04:45:11.391Z,17.55
2023-05-09T04:46:11.374Z,17.51
2023-05-09T04:47:11.324Z,17.50
2023-05-09T04:48:11.322Z,17.50
2023-05-09T04:49:11.303Z,17.51
2023-05-09T04:50:11.321Z,17.52
2023-05-09T04:51:11.321Z,17.53
2023-05-09T04:52:11.295Z,17.53
2023-05-09T04:53:11.290Z,17.58
2023-05-09T04:54:11.291Z,17.54
2023-05-09T04:55:11.344Z,17.53
2023-05-09T04:56:11.254Z,17.54
2023-05-09T04:57:17.867Z,17.54
2023-05-09T04:58:12.259Z,17.55
2023-05-09T04:59:11.255Z,17.57
2023-05-09T05:00:11.248Z,17.55
2023-05-09T05:01:11.244Z,17.56
2023-05-09T05:02:11.217Z,17.59
2023-05-09T05:03:11.265Z,17.57
2023-05-09T05:04:11.256Z,17.58
2023-05-09T05:05:13.362Z,17.60
2023-05-09T05:06:11.191Z,17.63
2023-05-09T05:07:11.198Z,17.65
2023-05-09T05:08:11.191Z,17.67
2023-05-09T05:09:11.189Z,17.66
2023-05-09T05:10:11.162Z,17.69
2023-05-09T05:11:11.236Z,17.72
2023-05-09T05:12:11.141Z,17.75
2023-05-09T05:13:11.196Z,17.79
2023-05-09T05:14:11.174Z,17.83
2023-05-09T05:15:11.138Z,17.87
2023-05-09T05:16:11.167Z,17.91
2023-05-09T05:17:11.102Z,17.93
2023-05-09T05:18:11.124Z,17.97
2023-05-09T05:19:11.180Z,18.01
2023-05-09T05:20:11.264Z,18.05
2023-05-09T05:21:11.286Z,18.08
2023-05-09T05:22:11.358Z,18.03
2023-05-09T05:23:11.393Z,18.06
2023-05-09T05:24:11.475Z,18.11
2023-05-09T05:25:11.490Z,18.17
2023-05-09T05:26:11.556Z,18.23
2023-05-09T05:27:11.650Z,18.25
2023-05-09T05:28:11.636Z,18.22
2023-05-09T05:29:11.707Z,18.16
2023-05-09T05:30:11.661Z,18.10
2023-05-09T05:31:11.762Z,18.03
2023-05-09T05:32:11.812Z,17.95
2023-05-09T05:33:11.865Z,17.96
2023-05-09T05:34:12.503Z,17.99
2023-05-09T05:35:12.124Z,18.01
2023-05-09T05:36:12.043Z,18.01
2023-05-09T05:37:12.129Z,18.01
2023-05-09T05:38:12.258Z,18.00
2023-05-09T05:39:12.215Z,18.01
2023-05-09T05:40:12.257Z,18.00
2023-05-09T05:41:12.388Z,17.98
2023-05-09T05:42:12.432Z,17.94
2023-05-09T05:43:12.517Z,17.97
2023-05-09T05:44:12.738Z,17.99
2023-05-09T05:45:12.649Z,18.01
2023-05-09T05:46:12.633Z,18.02
2023-05-09T05:47:12.592Z,18.05
2023-05-09T05:48:13.200Z,18.02
2023-05-09T05:49:12.690Z,17.99
2023-05-09T05:50:12.679Z,17.95
2023-05-09T05:51:12.745Z,17.88
2023-05-09T05:52:12.766Z,17.90
2023-05-09T05:53:12.812Z,17.91
2023-05-09T05:54:12.862Z,17.92
2023-05-09T05:55:13.046Z,17.91
2023-05-09T05:56:12.926Z,17.88
2023-05-09T05:57:12.973Z,17.92
2023-05-09T05:58:12.999Z,17.93
2023-05-09T05:59:13.664Z,17.97
2023-05-09T06:00:13.101Z,17.95
2023-05-09T06:01:13.470Z,17.98
2023-05-09T06:02:13.212Z,17.97
2023-05-09T06:03:13.310Z,17.98
2023-05-09T06:04:13.381Z,17.97
2023-05-09T06:05:13.476Z,17.98
2023-05-09T06:06:13.351Z,17.99
2023-05-09T06:07:13.420Z,18.01
2023-05-09T06:08:13.545Z,18.03
2023-05-09T06:09:13.535Z,17.98
2023-05-09T06:10:13.567Z,17.98
2023-05-09T06:11:13.637Z,17.96
2023-05-09T06:12:13.702Z,17.96
2023-05-09T06:13:14.284Z,17.95
2023-05-09T06:14:14.214Z,17.97
2023-05-09T06:15:14.234Z,17.93
2023-05-09T06:16:19.178Z,17.96
2023-05-09T06:17:14.974Z,17.98
2023-05-09T06:18:13.950Z,18.01
2023-05-09T06:19:14.209Z,18.05
2023-05-09T06:20:13.899Z,18.07
2023-05-09T06:21:13.910Z,18.06
2023-05-09T06:22:13.911Z,18.09
2023-05-09T06:23:13.890Z,18.10
2023-05-09T06:24:23.336Z,18.11
2023-05-09T06:25:15.175Z,18.10
2023-05-09T06:26:13.875Z,18.14
2023-05-09T06:27:14.063Z,18.18
2023-05-09T06:28:13.849Z,18.18
2023-05-09T06:29:13.868Z,18.15
2023-05-09T06:30:24.785Z,18.20
2023-05-09T06:31:14.894Z,18.20
2023-05-09T06:32:13.830Z,18.21
2023-05-09T06:33:13.868Z,18.23
2023-05-09T06:34:14.239Z,18.22
2023-05-09T06:35:14.006Z,18.21
2023-05-09T06:36:13.814Z,18.25
2023-05-09T06:37:13.844Z,18.27
2023-05-09T06:38:14.711Z,18.27
2023-05-09T06:39:14.226Z,18.26
2023-05-09T06:40:13.800Z,18.28
2023-05-09T06:41:13.783Z,18.29
2023-05-09T06:42:13.788Z,18.29
2023-05-09T06:43:13.745Z,18.29
2023-05-09T06:44:13.811Z,18.28
2023-05-09T06:45:13.982Z,18.30
2023-05-09T06:46:13.837Z,18.30
2023-05-09T06:47:13.883Z,18.31
2023-05-09T06:48:14.241Z,18.31
2023-05-09T06:49:13.888Z,18.30
2023-05-09T06:50:13.932Z,18.29
2023-05-09T06:51:13.956Z,18.32
2023-05-09T06:52:13.994Z,18.35
2023-05-09T06:53:14.313Z,18.40
2023-05-09T06:54:14.030Z,18.42
2023-05-09T06:55:14.261Z,18.42
2023-05-09T06:56:14.079Z,18.44
2023-05-09T06:57:14.249Z,18.46
2023-05-09T06:58:14.369Z,18.45
2023-05-09T06:59:14.315Z,18.47
2023-05-09T07:00:14.196Z,18.50
2023-05-09T07:01:14.374Z,18.56
2023-05-09T07:02:14.277Z,18.53
2023-05-09T07:03:14.287Z,18.46
2023-05-09T07:04:14.290Z,18.47
2023-05-09T07:05:14.687Z,18.45
2023-05-09T07:06:14.327Z,18.44
2023-05-09T07:07:14.331Z,18.40
2023-05-09T07:08:14.342Z,18.42
2023-05-09T07:09:14.349Z,18.38
2023-05-09T07:10:14.331Z,18.41
2023-05-09T07:11:14.352Z,18.45
2023-05-09T07:12:14.355Z,18.49
2023-05-09T07:13:14.426Z,18.50
2023-05-09T07:14:14.768Z,18.52
2023-05-09T07:15:16.895Z,18.59
2023-05-09T07:16:15.444Z,18.62
2023-05-09T07:17:22.971Z,18.65
2023-05-09T07:18:15.596Z,18.71
2023-05-09T07:19:14.869Z,18.72
2023-05-09T07:20:14.410Z,18.70
2023-05-09T07:21:14.376Z,18.72
2023-05-09T07:22:14.394Z,18.70
2023-05-09T07:23:15.222Z,18.72
2023-05-09T07:24:18.973Z,18.75
2023-05-09T07:25:14.597Z,18.74
2023-05-09T07:26:14.348Z,18.73
2023-05-09T07:27:14.325Z,18.72
2023-05-09T07:28:14.313Z,18.71
2023-05-09T07:29:14.747Z,18.68
2023-05-09T07:30:14.380Z,18.66
2023-05-09T07:31:14.324Z,18.69
2023-05-09T07:32:14.342Z,18.69
2023-05-09T07:33:14.856Z,18.70
2023-05-09T07:34:14.745Z,18.75
2023-05-09T07:35:14.707Z,18.77
2023-05-09T07:36:14.275Z,18.77
2023-05-09T07:37:15.411Z,18.80
2023-05-09T07:38:14.780Z,18.76
2023-05-09T07:39:14.753Z,18.74
2023-05-09T07:40:14.640Z,18.75
2023-05-09T07:41:14.271Z,18.77
2023-05-09T07:42:14.302Z,18.84
2023-05-09T07:43:14.269Z,18.87
2023-05-09T07:44:14.272Z,18.82
2023-05-09T07:45:14.458Z,18.82
2023-05-09T07:46:14.319Z,18.82
2023-05-09T07:47:14.263Z,18.84
2023-05-09T07:48:14.262Z,18.83
2023-05-09T07:49:14.250Z,18.79
2023-05-09T07:50:14.282Z,18.85
2023-05-09T07:51:14.359Z,18.89
2023-05-09T07:52:14.285Z,18.92
2023-05-09T07:53:14.274Z,18.94
2023-05-09T07:54:14.773Z,18.99
2023-05-09T07:55:14.592Z,18.82
2023-05-09T07:56:14.296Z,18.88
2023-05-09T07:57:14.389Z,18.86
2023-05-09T07:58:14.450Z,18.69
2023-05-09T07:59:14.759Z,18.77
2023-05-09T08:00:14.575Z,18.86
2023-05-09T08:01:14.689Z,18.95
2023-05-09T08:02:14.685Z,18.99
2023-05-09T08:03:14.846Z,19.02
2023-05-09T08:04:14.768Z,19.03
2023-05-09T08:05:14.950Z,19.07
2023-05-09T08:06:14.814Z,19.13
2023-05-09T08:07:14.896Z,19.14
2023-05-09T08:08:14.916Z,19.16
2023-05-09T08:09:14.968Z,19.23
2023-05-09T08:10:15.034Z,19.31
2023-05-09T08:11:15.043Z,19.37
2023-05-09T08:12:15.107Z,19.36
2023-05-09T08:13:15.155Z,19.26
2023-05-09T08:14:15.704Z,19.28
2023-05-09T08:15:15.373Z,19.28
2023-05-09T08:16:15.364Z,18.86
2023-05-09T08:17:15.277Z,18.95
2023-05-09T08:18:15.314Z,19.06
2023-05-09T08:19:15.814Z,19.12
2023-05-09T08:20:15.370Z,19.12
2023-05-09T08:21:15.391Z,18.97
2023-05-09T08:22:15.433Z,18.80
2023-05-09T08:23:15.477Z,18.93
2023-05-09T08:24:15.494Z,19.00
2023-05-09T08:25:15.689Z,18.96
2023-05-09T08:26:15.545Z,19.08
2023-05-09T08:27:15.672Z,19.18
2023-05-09T08:28:15.569Z,19.02
2023-05-09T08:29:15.589Z,19.08
2023-05-09T08:30:15.594Z,19.08
2023-05-09T08:31:15.652Z,19.14
2023-05-09T08:32:15.694Z,19.29
2023-05-09T08:33:15.635Z,19.15
2023-05-09T08:34:15.726Z,19.31
2023-05-09T08:35:15.934Z,19.45
2023-05-09T08:36:15.812Z,19.61
2023-05-09T08:37:15.814Z,19.68
2023-05-09T08:38:15.853Z,19.70
2023-05-09T08:39:16.366Z,19.62
2023-05-09T08:40:16.177Z,19.59
2023-05-09T08:41:16.025Z,19.48
2023-05-09T08:42:16.076Z,19.48
2023-05-09T08:43:16.092Z,19.40
2023-05-09T08:44:16.271Z,19.23
2023-05-09T08:45:16.216Z,19.36
2023-05-09T08:46:16.294Z,19.32
2023-05-09T08:47:16.332Z,19.40
2023-05-09T08:48:16.389Z,19.50
2023-05-09T08:49:16.751Z,19.44
2023-05-09T08:50:16.589Z,19.52
2023-05-09T08:51:16.522Z,19.62
2023-05-09T08:52:16.586Z,19.72
2023-05-09T08:53:16.613Z,19.75
2023-05-09T08:54:16.761Z,19.77
2023-05-09T08:55:16.690Z,19.80
2023-05-09T08:56:16.625Z,19.85
2023-05-09T08:57:16.626Z,19.91
2023-05-09T08:58:16.651Z,19.99
2023-05-09T08:59:16.744Z,20.02
2023-05-09T09:00:19.519Z,20.09
2023-05-09T09:01:16.787Z,20.11
2023-05-09T09:02:16.782Z,20.09
2023-05-09T09:03:16.757Z,20.07
2023-05-09T09:04:16.807Z,20.02
2023-05-09T09:05:34.624Z,19.98
2023-05-09T09:06:17.718Z,19.97
2023-05-09T09:07:16.708Z,19.99
2023-05-09T09:08:16.713Z,20.00
2023-05-09T09:09:16.806Z,20.03
2023-05-09T09:10:16.826Z,20.06
2023-05-09T09:11:16.761Z,20.09
2023-05-09T09:12:16.696Z,20.16
2023-05-09T09:13:16.771Z,20.22
2023-05-09T09:14:16.785Z,20.23
2023-05-09T09:15:16.786Z,20.25
2023-05-09T09:16:16.874Z,20.22
2023-05-09T09:17:16.900Z,20.10
2023-05-09T09:18:16.976Z,20.11
2023-05-09T09:19:17.021Z,20.16
2023-05-09T09:20:17.196Z,20.19
2023-05-09T09:21:17.182Z,20.22
2023-05-09T09:22:17.210Z,20.25
2023-05-09T09:23:17.236Z,20.00
2023-05-09T09:24:17.305Z,20.05
2023-05-09T09:25:17.336Z,20.03
2023-05-09T09:26:17.416Z,20.00
2023-05-09T09:27:17.528Z,20.00
2023-05-09T09:28:17.520Z,20.06
2023-05-09T09:29:17.792Z,20.12
2023-05-09T09:30:17.649Z,20.15
2023-05-09T09:31:17.703Z,20.17
2023-05-09T09:32:17.742Z,20.21
2023-05-09T09:33:17.711Z,20.31
2023-05-09T09:34:17.820Z,20.39
2023-05-09T09:35:17.781Z,20.45
2023-05-09T09:36:17.798Z,20.54
2023-05-09T09:37:17.823Z,20.60
2023-05-09T09:38:17.819Z,20.66
2023-05-09T09:39:17.903Z,20.73
2023-05-09T09:40:17.992Z,20.68
2023-05-09T09:41:17.846Z,20.73
2023-05-09T09:42:17.883Z,20.77
2023-05-09T09:43:17.930Z,20.79
2023-05-09T09:44:18.281Z,20.75
2023-05-09T09:45:17.869Z,20.83
2023-05-09T09:46:17.906Z,20.89
2023-05-09T09:47:17.867Z,20.77
2023-05-09T09:48:18.310Z,20.75
2023-05-09T09:49:18.333Z,20.73
2023-05-09T09:50:18.110Z,20.78
2023-05-09T09:51:17.946Z,20.66
2023-05-09T09:52:17.979Z,20.63
2023-05-09T09:53:18.016Z,20.69
2023-05-09T09:54:18.317Z,20.62
2023-05-09T09:55:18.092Z,20.54
2023-05-09T09:56:18.084Z,20.63
2023-05-09T09:57:18.115Z,20.26
2023-05-09T09:58:18.240Z,20.25
2023-05-09T09:59:18.309Z,20.43
2023-05-09T10:00:18.271Z,20.57
2023-05-09T10:01:18.346Z,20.44
2023-05-09T10:02:18.236Z,20.46
2023-05-09T10:03:18.348Z,20.52
2023-05-09T10:04:18.332Z,20.63
2023-05-09T10:05:18.246Z,20.74
2023-05-09T10:06:18.255Z,20.82
2023-05-09T10:07:18.289Z,20.87
2023-05-09T10:08:18.322Z,20.78
2023-05-09T10:09:18.367Z,20.70
2023-05-09T10:10:18.400Z,20.74
2023-05-09T10:11:18.452Z,20.85
2023-05-09T10:12:18.497Z,20.82
2023-05-09T10:13:18.655Z,20.90
2023-05-09T10:14:18.816Z,21.01
2023-05-09T10:15:18.755Z,21.05
2023-05-09T10:16:21.466Z,21.10
2023-05-09T10:17:19.777Z,21.13
2023-05-09T10:18:18.863Z,21.19
2023-05-09T10:19:18.895Z,21.19
2023-05-09T10:20:18.894Z,21.20
2023-05-09T10:21:18.740Z,21.21
2023-05-09T10:22:18.709Z,21.24
2023-05-09T10:23:18.694Z,21.29
2023-05-09T10:24:18.838Z,21.33
2023-05-09T10:25:18.652Z,21.39
2023-05-09T10:26:18.720Z,21.45
2023-05-09T10:27:18.785Z,21.43
2023-05-09T10:28:18.824Z,21.27
2023-05-09T10:29:18.893Z,21.30
2023-05-09T10:30:18.961Z,21.31
2023-05-09T10:31:19.067Z,21.36
2023-05-09T10:32:18.976Z,21.44
2023-05-09T10:33:19.002Z,21.41
2023-05-09T10:34:19.339Z,21.32
2023-05-09T10:35:19.009Z,21.19
2023-05-09T10:36:19.041Z,21.28
2023-05-09T10:37:19.057Z,21.39
2023-05-09T10:38:19.115Z,21.33
2023-05-09T10:39:19.373Z,21.41
2023-05-09T10:40:19.117Z,21.49
2023-05-09T10:41:19.158Z,21.37
2023-05-09T10:42:19.139Z,21.43
2023-05-09T10:43:19.160Z,21.47
2023-05-09T10:44:19.165Z,21.56
2023-05-09T10:45:19.306Z,21.55
2023-05-09T10:46:19.233Z,21.33
2023-05-09T10:47:19.320Z,21.41
2023-05-09T10:48:19.281Z,21.52
2023-05-09T10:49:20.305Z,21.60
2023-05-09T10:50:19.347Z,21.62
2023-05-09T10:51:19.346Z,21.56
2023-05-09T10:52:19.355Z,21.43
2023-05-09T10:53:19.381Z,21.41
2023-05-09T10:54:19.809Z,21.43
2023-05-09T10:55:19.465Z,21.45
2023-05-09T10:56:19.484Z,21.48
2023-05-09T10:57:19.525Z,21.50
2023-05-09T10:58:19.559Z,21.49
2023-05-09T10:59:19.820Z,21.45
2023-05-09T11:00:19.675Z,21.48
2023-05-09T11:01:19.756Z,21.44
2023-05-09T11:02:19.720Z,21.45
2023-05-09T11:03:19.942Z,21.19
2023-05-09T11:04:19.827Z,21.15
2023-05-09T11:05:19.812Z,21.25
2023-05-09T11:06:19.848Z,21.29
2023-05-09T11:07:19.872Z,21.32
2023-05-09T11:08:19.910Z,21.38
2023-05-09T11:09:19.967Z,21.45
2023-05-09T11:10:20.067Z,21.49
2023-05-09T11:11:20.037Z,21.54
2023-05-09T11:12:20.074Z,21.60
2023-05-09T11:13:20.108Z,21.66
2023-05-09T11:14:20.349Z,21.72
2023-05-09T11:15:20.320Z,21.77
2023-05-09T11:16:20.145Z,21.82
2023-05-09T11:17:20.158Z,21.86
2023-05-09T11:18:20.155Z,21.87
2023-05-09T11:19:20.242Z,21.82
2023-05-09T11:20:20.163Z,21.84
2023-05-09T11:21:20.159Z,21.94
2023-05-09T11:22:20.181Z,21.83
2023-05-09T11:23:20.184Z,21.79
2023-05-09T11:24:20.215Z,21.64
2023-05-09T11:25:20.262Z,21.65
2023-05-09T11:26:20.304Z,21.74
2023-05-09T11:27:20.346Z,21.63
2023-05-09T11:28:20.426Z,21.68
2023-05-09T11:29:20.463Z,21.77
2023-05-09T11:30:20.558Z,21.83
2023-05-09T11:31:20.647Z,21.92
2023-05-09T11:32:20.649Z,21.82
2023-05-09T11:33:20.656Z,21.85
2023-05-09T11:34:20.700Z,21.89
2023-05-09T11:35:20.896Z,21.80
2023-05-09T11:36:20.819Z,21.79
2023-05-09T11:37:20.841Z,21.89
2023-05-09T11:38:20.939Z,21.88
2023-05-09T11:39:20.954Z,21.96
2023-05-09T11:40:21.087Z,22.04
2023-05-09T11:41:21.075Z,22.11
2023-05-09T11:42:21.135Z,22.18
2023-05-09T11:43:21.197Z,22.21
2023-05-09T11:44:21.240Z,22.26
2023-05-09T11:45:21.277Z,22.30
2023-05-09T11:46:21.388Z,22.31
2023-05-09T11:47:21.435Z,22.27
2023-05-09T11:48:21.429Z,22.29
2023-05-09T11:49:21.498Z,22.19
2023-05-09T11:50:21.542Z,22.24
2023-05-09T11:51:21.651Z,22.07
2023-05-09T11:52:21.638Z,21.86
2023-05-09T11:53:21.652Z,21.90
2023-05-09T11:54:21.699Z,22.01
2023-05-09T11:55:21.784Z,22.09
2023-05-09T11:56:21.814Z,22.16
2023-05-09T11:57:21.893Z,22.23
2023-05-09T11:58:21.922Z,22.28
2023-05-09T11:59:21.991Z,22.32
2023-05-09T12:00:22.061Z,22.34
2023-05-09T12:01:22.062Z,22.36
2023-05-09T12:02:22.169Z,22.39
2023-05-09T12:03:22.304Z,22.39
2023-05-09T12:04:22.239Z,22.44
2023-05-09T12:05:22.269Z,22.46
2023-05-09T12:06:22.327Z,22.46
2023-05-09T12:07:22.473Z,22.42
2023-05-09T12:08:22.436Z,22.40
2023-05-09T12:09:22.531Z,22.41
2023-05-09T12:10:22.561Z,22.46
2023-05-09T12:11:22.627Z,22.50
2023-05-09T12:12:22.690Z,22.49
2023-05-09T12:13:22.753Z,22.52
2023-05-09T12:14:22.803Z,22.55
2023-05-09T12:15:22.852Z,22.56
2023-05-09T12:16:22.941Z,22.53
2023-05-09T12:17:23.059Z,22.60
2023-05-09T12:18:23.020Z,22.59
2023-05-09T12:19:23.073Z,22.59
2023-05-09T12:20:23.115Z,22.59
2023-05-09T12:21:23.137Z,22.62
2023-05-09T12:22:23.209Z,22.64
2023-05-09T12:23:23.318Z,22.64
2023-05-09T12:24:23.291Z,22.67
2023-05-09T12:25:23.337Z,22.67
2023-05-09T12:26:23.356Z,22.70
2023-05-09T12:27:23.419Z,22.70
2023-05-09T12:28:23.458Z,22.71
2023-05-09T12:29:23.479Z,22.80
2023-05-09T12:30:23.488Z,22.86
2023-05-09T12:31:23.535Z,22.93
2023-05-09T12:32:23.591Z,22.94
2023-05-09T12:33:23.546Z,22.95
2023-05-09T12:34:23.581Z,22.92
2023-05-09T12:35:23.844Z,22.94
2023-05-09T12:36:23.624Z,22.97
2023-05-09T12:37:23.627Z,23.01
2023-05-09T12:38:23.638Z,23.02
2023-05-09T12:39:23.739Z,23.02
2023-05-09T12:40:23.679Z,23.04
2023-05-09T12:41:37.000Z,23.01
2023-05-09T12:42:24.759Z,23.01
2023-05-09T12:43:23.754Z,23.07
2023-05-09T12:44:23.747Z,23.09
2023-05-09T12:45:23.723Z,23.06
2023-05-09T12:46:23.819Z,23.06
2023-05-09T12:47:23.733Z,23.09
2023-05-09T12:48:23.698Z,23.01
2023-05-09T12:49:23.713Z,22.86
2023-05-09T12:50:23.701Z,22.94
2023-05-09T12:51:23.722Z,22.89
2023-05-09T12:52:23.674Z,22.97